Wetterdaten: Montag, 25.11.2013
Datum Zeit Temperatur Luftfeuchte Luftdruck Regen Wind Richtung Richtung Taupunkt Windchill Windben
25.11.2013 00:00 0,1 C 98 % 1019,9 hPa 0,0 l/m 4,8 km/h (1 Bft) S-SO 157 -0,2 C -1,4 C 6,4 km/h (2 Bft)
25.11.2013 00:05 0,1 C 98 % 1019,8 hPa 0,0 l/m 4,8 km/h (1 Bft) S 180 -0,2 C -1,4 C 6,0 km/h (2 Bft)
25.11.2013 00:10 0,1 C 98 % 1019,8 hPa 0,0 l/m 4,8 km/h (1 Bft) S-SO 157 -0,2 C -1,4 C 7,1 km/h (2 Bft)
25.11.2013 00:15 0,1 C 98 % 1019,8 hPa 0,0 l/m 4,0 km/h (1 Bft) S 180 -0,2 C -1,1 C 6,4 km/h (2 Bft)
25.11.2013 00:20 0,1 C 98 % 1019,8 hPa 0,0 l/m 4,3 km/h (1 Bft) S-SO 157 -0,2 C -1,2 C 6,0 km/h (2 Bft)
25.11.2013 00:25 0,1 C 98 % 1020,0 hPa 0,0 l/m 5,0 km/h (1 Bft) S-SO 157 -0,2 C -1,4 C 7,6 km/h (2 Bft)
25.11.2013 00:30 0,1 C 98 % 1020,0 hPa 0,0 l/m 5,0 km/h (1 Bft) S-SO 157 -0,2 C -1,4 C 5,8 km/h (2 Bft)
25.11.2013 00:35 0,1 C 98 % 1020,0 hPa 0,0 l/m 4,5 km/h (1 Bft) S 180 -0,2 C -1,3 C 4,2 km/h (1 Bft)
25.11.2013 00:40 0,1 C 98 % 1020,0 hPa 0,0 l/m 4,5 km/h (1 Bft) S 180 -0,2 C -1,3 C 5,0 km/h (1 Bft)
25.11.2013 00:45 0,1 C 98 % 1019,8 hPa 0,0 l/m 4,7 km/h (1 Bft) S-SO 157 -0,2 C -1,3 C 5,0 km/h (1 Bft)
25.11.2013 00:50 0,1 C 98 % 1019,8 hPa 0,0 l/m 4,5 km/h (1 Bft) S 180 -0,2 C -1,2 C 6,0 km/h (2 Bft)
25.11.2013 00:55 0,1 C 98 % 1019,8 hPa 0,0 l/m 4,5 km/h (1 Bft) S-SO 157 -0,2 C -1,2 C 6,9 km/h (2 Bft)
25.11.2013 01:00 0,1 C 98 % 1019,8 hPa 0,0 l/m 3,9 km/h (1 Bft) S-SO 157 -0,2 C -0,9 C 4,8 km/h (1 Bft)
25.11.2013 01:05 0,1 C 98 % 1019,9 hPa 0,0 l/m 2,9 km/h (1 Bft) S 180 -0,2 C -0,3 C 6,0 km/h (2 Bft)
25.11.2013 01:10 -0,2 C 98 % 1019,9 hPa 0,0 l/m 4,0 km/h (1 Bft) W-NW 292 -0,5 C -1,0 C 13,4 km/h (3 Bft)
25.11.2013 01:15 -0,9 C 98 % 1019,9 hPa 0,0 l/m 7,1 km/h (2 Bft) W 270 -1,2 C -4,1 C 14,3 km/h (3 Bft)
25.11.2013 01:20 -1,1 C 98 % 1019,9 hPa 0,0 l/m 7,7 km/h (2 Bft) W 270 -1,4 C -5,3 C 7,4 km/h (2 Bft)
25.11.2013 01:25 -1,2 C 97 % 1020,4 hPa 0,0 l/m 6,4 km/h (2 Bft) W-NW 292 -1,6 C -3,6 C 2,1 km/h (1 Bft)
25.11.2013 01:30 -1,3 C 97 % 1020,4 hPa 0,0 l/m 6,3 km/h (2 Bft) W-NW 292 -1,7 C -3,6 C 7,6 km/h (2 Bft)
25.11.2013 01:35 -1,4 C 96 % 1020,4 hPa 0,0 l/m 7,6 km/h (2 Bft) W-NW 292 -2,0 C -5,6 C 16,4 km/h (3 Bft)
25.11.2013 01:40 -1,5 C 96 % 1020,4 hPa 0,0 l/m 8,2 km/h (2 Bft) W-NW 292 -2,1 C -6,7 C 8,0 km/h (2 Bft)
25.11.2013 01:45 -1,7 C 96 % 1020,6 hPa 0,0 l/m 7,6 km/h (2 Bft) N 360 -2,3 C -5,9 C 11,7 km/h (2 Bft)
25.11.2013 01:50 -1,7 C 96 % 1020,6 hPa 0,0 l/m 7,7 km/h (2 Bft) W-NW 292 -2,3 C -6,2 C 7,4 km/h (2 Bft)
25.11.2013 01:55 -1,8 C 96 % 1020,6 hPa 0,0 l/m 6,9 km/h (2 Bft) W-NW 292 -2,4 C -5,0 C 7,4 km/h (2 Bft)
25.11.2013 02:00 -1,8 C 96 % 1020,6 hPa 0,0 l/m 5,6 km/h (1 Bft) N-NW 337 -2,4 C -3,9 C 5,8 km/h (2 Bft)
25.11.2013 02:05 -1,9 C 95 % 1021,0 hPa 0,0 l/m 5,5 km/h (1 Bft) NW 315 -2,6 C -3,9 C 10,1 km/h (2 Bft)
25.11.2013 02:10 -2,0 C 95 % 1021,0 hPa 0,0 l/m 6,4 km/h (2 Bft) W-NW 292 -2,7 C -4,3 C 6,9 km/h (2 Bft)
25.11.2013 02:15 -2,1 C 95 % 1021,0 hPa 0,0 l/m 6,6 km/h (2 Bft) W-NW 292 -2,8 C -4,8 C 6,9 km/h (2 Bft)
25.11.2013 02:20 -2,1 C 95 % 1021,0 hPa 0,0 l/m 5,1 km/h (1 Bft) W-NW 292 -2,8 C -4,1 C 3,4 km/h (1 Bft)
25.11.2013 02:25 -2,1 C 95 % 1021,2 hPa 0,0 l/m 4,0 km/h (1 Bft) N-NW 337 -2,8 C -3,6 C 3,2 km/h (1 Bft)
25.11.2013 02:30 -2,2 C 95 % 1021,2 hPa 0,0 l/m 3,2 km/h (1 Bft) N-NW 337 -2,9 C -3,1 C 4,5 km/h (1 Bft)
25.11.2013 02:35 -2,3 C 95 % 1021,2 hPa 0,0 l/m 5,0 km/h (1 Bft) W-NW 292 -3,0 C -4,1 C 6,6 km/h (2 Bft)
25.11.2013 02:40 -2,3 C 95 % 1021,2 hPa 0,0 l/m 5,6 km/h (1 Bft) N-NW 337 -3,0 C -4,5 C 2,9 km/h (1 Bft)
25.11.2013 02:45 -2,4 C 95 % 1021,3 hPa 0,0 l/m 3,9 km/h (1 Bft) N 360 -3,1 C -3,5 C 7,9 km/h (2 Bft)
25.11.2013 02:50 -2,4 C 95 % 1021,3 hPa 0,0 l/m 3,4 km/h (1 Bft) NW 315 -3,1 C -3,2 C 3,2 km/h (1 Bft)
25.11.2013 02:55 -2,3 C 95 % 1021,3 hPa 0,0 l/m 4,7 km/h (1 Bft) W 270 -3,0 C -4,0 C 6,9 km/h (2 Bft)
25.11.2013 03:00 -2,3 C 95 % 1021,3 hPa 0,0 l/m 4,5 km/h (1 Bft) NW 315 -3,0 C -3,9 C 6,6 km/h (2 Bft)
25.11.2013 03:05 -2,4 C 95 % 1021,7 hPa 0,0 l/m 3,9 km/h (1 Bft) O-NO 67 -3,1 C -3,5 C 3,2 km/h (1 Bft)
25.11.2013 03:10 -2,3 C 95 % 1021,7 hPa 0,0 l/m 2,7 km/h (1 Bft) N 360 -3,0 C -2,7 C 5,0 km/h (1 Bft)
25.11.2013 03:15 -2,3 C 95 % 1021,7 hPa 0,0 l/m 1,4 km/h (1 Bft) W-SW 247 -3,0 C -2,3 C 1,6 km/h (1 Bft)
25.11.2013 03:20 -2,4 C 95 % 1021,7 hPa 0,0 l/m 1,1 km/h (1 Bft) W 270 -3,1 C -2,3 C 0,0 km/h (0 Bft)
25.11.2013 03:25 -2,4 C 95 % 1021,9 hPa 0,0 l/m 1,3 km/h (1 Bft) W 270 -3,1 C -2,4 C 3,7 km/h (1 Bft)
25.11.2013 03:30 -2,5 C 95 % 1021,9 hPa 0,0 l/m 3,1 km/h (1 Bft) NW 315 -3,2 C -3,1 C 6,4 km/h (2 Bft)
25.11.2013 03:35 -2,6 C 94 % 1021,9 hPa 0,0 l/m 4,8 km/h (1 Bft) SW 225 -3,4 C -4,3 C 6,6 km/h (2 Bft)
25.11.2013 03:40 -2,7 C 94 % 1021,9 hPa 0,0 l/m 4,2 km/h (1 Bft) W 270 -3,5 C -4,1 C 3,2 km/h (1 Bft)
25.11.2013 03:45 -2,8 C 94 % 1021,8 hPa 0,0 l/m 2,6 km/h (1 Bft) W-NW 292 -3,6 C -3,1 C 2,6 km/h (1 Bft)
25.11.2013 03:50 -2,8 C 94 % 1021,8 hPa 0,0 l/m 1,8 km/h (1 Bft) W 270 -3,6 C -2,8 C 0,0 km/h (0 Bft)
25.11.2013 03:55 -2,8 C 94 % 1021,8 hPa 0,0 l/m 1,0 km/h (0 Bft) W 270 -3,6 C -2,8 C 0,0 km/h (0 Bft)
25.11.2013 04:00 -2,8 C 94 % 1021,8 hPa 0,0 l/m 0,5 km/h (0 Bft) W-SW 247 -3,6 C -2,9 C 0,0 km/h (0 Bft)
25.11.2013 04:05 -2,8 C 94 % 1022,1 hPa 0,0 l/m 1,9 km/h (1 Bft) W-NW 292 -3,6 C -2,9 C 4,8 km/h (1 Bft)
25.11.2013 04:10 -2,8 C 94 % 1022,1 hPa 0,0 l/m 2,9 km/h (1 Bft) SW 225 -3,6 C -3,4 C 4,8 km/h (1 Bft)
25.11.2013 04:15 -2,9 C 94 % 1022,1 hPa 0,0 l/m 5,0 km/h (1 Bft) W-NW 292 -3,7 C -4,9 C 6,3 km/h (2 Bft)
25.11.2013 04:20 -3,0 C 94 % 1022,1 hPa 0,0 l/m 6,0 km/h (2 Bft) W 270 -3,8 C -5,4 C 6,8 km/h (2 Bft)
25.11.2013 04:25 -3,1 C 94 % 1022,5 hPa 0,0 l/m 5,8 km/h (2 Bft) NW 315 -3,9 C -5,5 C 3,9 km/h (1 Bft)
25.11.2013 04:30 -3,2 C 93 % 1022,5 hPa 0,0 l/m 4,5 km/h (1 Bft) W-SW 247 -4,2 C -4,8 C 4,2 km/h (1 Bft)
25.11.2013 04:35 -3,2 C 93 % 1022,5 hPa 0,0 l/m 4,2 km/h (1 Bft) W-NW 292 -4,2 C -4,8 C 3,5 km/h (1 Bft)
25.11.2013 04:38 -3,2 C 93 % 1022,5 hPa 0,0 l/m 3,9 km/h (1 Bft) W 270 -4,2 C -4,6 C 1,9 km/h (1 Bft)
25.11.2013 04:40 -3,2 C 93 % 1022,5 hPa 0,0 l/m 3,9 km/h (1 Bft) W 270 -4,2 C -4,6 C 1,9 km/h (1 Bft)
25.11.2013 04:45 -3,2 C 93 % 1022,6 hPa 0,0 l/m 2,9 km/h (1 Bft) W-SW 247 -4,2 C -3,9 C 4,2 km/h (1 Bft)
25.11.2013 04:50 -3,2 C 93 % 1022,6 hPa 0,0 l/m 3,9 km/h (1 Bft) S-SW 202 -4,2 C -4,6 C 4,8 km/h (1 Bft)
25.11.2013 04:55 -3,3 C 93 % 1022,6 hPa 0,0 l/m 4,7 km/h (1 Bft) W-SW 247 -4,3 C -5,3 C 5,8 km/h (2 Bft)
25.11.2013 05:00 -3,4 C 93 % 1022,6 hPa 0,0 l/m 4,2 km/h (1 Bft) S-SW 202 -4,4 C -4,8 C 6,9 km/h (2 Bft)
25.11.2013 05:05 -3,5 C 93 % 1022,8 hPa 0,0 l/m 3,5 km/h (1 Bft) W-SW 247 -4,5 C -4,6 C 3,1 km/h (1 Bft)
25.11.2013 05:10 -3,5 C 93 % 1022,8 hPa 0,0 l/m 3,2 km/h (1 Bft) W 270 -4,5 C -4,3 C 4,8 km/h (1 Bft)
25.11.2013 05:15 -3,5 C 93 % 1022,8 hPa 0,0 l/m 2,9 km/h (1 Bft) W 270 -4,5 C -4,2 C 5,5 km/h (1 Bft)
25.11.2013 05:20 -3,5 C 93 % 1022,8 hPa 0,0 l/m 2,9 km/h (1 Bft) W 270 -4,5 C -4,2 C 2,9 km/h (1 Bft)
25.11.2013 05:25 -3,5 C 93 % 1023,0 hPa 0,0 l/m 3,2 km/h (1 Bft) NW 315 -4,5 C -4,4 C 0,0 km/h (0 Bft)
25.11.2013 05:30 -3,5 C 93 % 1023,0 hPa 0,0 l/m 2,6 km/h (1 Bft) W 270 -4,5 C -3,9 C 4,0 km/h (1 Bft)
25.11.2013 05:35 -3,5 C 93 % 1023,0 hPa 0,0 l/m 2,1 km/h (1 Bft) W 270 -4,5 C -3,5 C 5,5 km/h (1 Bft)
25.11.2013 05:40 -3,6 C 93 % 1023,0 hPa 0,0 l/m 3,2 km/h (1 Bft) W 270 -4,6 C -4,6 C 6,8 km/h (2 Bft)
25.11.2013 05:45 -3,6 C 93 % 1023,1 hPa 0,0 l/m 3,7 km/h (1 Bft) SW 225 -4,6 C -4,9 C 6,1 km/h (2 Bft)
25.11.2013 05:50 -3,7 C 93 % 1023,1 hPa 0,0 l/m 4,3 km/h (1 Bft) W-SW 247 -4,7 C -5,3 C 7,4 km/h (2 Bft)
25.11.2013 05:55 -3,7 C 93 % 1023,1 hPa 0,0 l/m 4,2 km/h (1 Bft) W-NW 292 -4,7 C -5,3 C 6,1 km/h (2 Bft)
25.11.2013 06:00 -3,7 C 93 % 1023,1 hPa 0,0 l/m 4,3 km/h (1 Bft) W-NW 292 -4,7 C -5,4 C 6,4 km/h (2 Bft)
25.11.2013 06:05 -3,7 C 93 % 1023,2 hPa 0,0 l/m 3,5 km/h (1 Bft) S-SW 202 -4,7 C -4,9 C 0,0 km/h (0 Bft)
25.11.2013 06:10 -3,8 C 93 % 1023,2 hPa 0,0 l/m 3,1 km/h (1 Bft) S-SW 202 -4,8 C -4,7 C 3,2 km/h (1 Bft)
25.11.2013 06:15 -3,8 C 93 % 1023,2 hPa 0,0 l/m 3,1 km/h (1 Bft) S-SW 202 -4,8 C -4,7 C 3,7 km/h (1 Bft)
25.11.2013 06:20 -3,8 C 93 % 1023,2 hPa 0,0 l/m 2,6 km/h (1 Bft) W-SW 247 -4,8 C -4,2 C 4,0 km/h (1 Bft)
25.11.2013 06:25 -3,9 C 92 % 1023,4 hPa 0,0 l/m 2,6 km/h (1 Bft) W 270 -5,0 C -4,4 C 3,9 km/h (1 Bft)
25.11.2013 06:30 -3,8 C 92 % 1023,4 hPa 0,0 l/m 3,5 km/h (1 Bft) S-SW 202 -4,9 C -5,1 C 5,6 km/h (1 Bft)
25.11.2013 06:35 -3,9 C 92 % 1023,4 hPa 0,0 l/m 4,0 km/h (1 Bft) S 180 -5,0 C -5,4 C 5,0 km/h (1 Bft)
25.11.2013 06:40 -3,9 C 92 % 1023,4 hPa 0,0 l/m 4,3 km/h (1 Bft) S-SW 202 -5,0 C -5,6 C 5,1 km/h (1 Bft)
25.11.2013 06:45 -3,9 C 92 % 1023,7 hPa 0,0 l/m 5,0 km/h (1 Bft) S 180 -5,0 C -6,1 C 6,8 km/h (2 Bft)
25.11.2013 06:50 -4,0 C 92 % 1023,7 hPa 0,0 l/m 5,1 km/h (1 Bft) S 180 -5,1 C -6,2 C 3,7 km/h (1 Bft)
25.11.2013 06:55 -4,1 C 92 % 1023,7 hPa 0,0 l/m 4,2 km/h (1 Bft) S-SW 202 -5,2 C -5,8 C 2,9 km/h (1 Bft)
25.11.2013 07:00 -4,1 C 92 % 1023,7 hPa 0,0 l/m 3,9 km/h (1 Bft) S-SW 202 -5,2 C -5,6 C 6,6 km/h (2 Bft)
25.11.2013 07:05 -4,1 C 92 % 1023,9 hPa 0,0 l/m 4,3 km/h (1 Bft) W 270 -5,2 C -6,0 C 5,6 km/h (1 Bft)
25.11.2013 07:10 -4,2 C 92 % 1023,9 hPa 0,0 l/m 4,3 km/h (1 Bft) W-NW 292 -5,3 C -6,0 C 2,9 km/h (1 Bft)
25.11.2013 07:15 -4,2 C 92 % 1023,9 hPa 0,0 l/m 3,5 km/h (1 Bft) S 180 -5,3 C -5,5 C 0,0 km/h (0 Bft)
25.11.2013 07:20 -4,2 C 92 % 1023,9 hPa 0,0 l/m 2,4 km/h (1 Bft) S-SW 202 -5,3 C -4,6 C 5,0 km/h (1 Bft)
25.11.2013 07:25 -4,2 C 92 % 1024,1 hPa 0,0 l/m 2,3 km/h (1 Bft) W-SW 247 -5,3 C -4,4 C 5,1 km/h (1 Bft)
25.11.2013 07:30 -4,2 C 92 % 1024,1 hPa 0,0 l/m 2,9 km/h (1 Bft) N-NO 22 -5,3 C -5,1 C 6,0 km/h (2 Bft)
25.11.2013 07:35 -4,3 C 92 % 1024,1 hPa 0,0 l/m 4,0 km/h (1 Bft) W-SW 247 -5,4 C -5,8 C 6,6 km/h (2 Bft)
25.11.2013 07:40 -4,5 C 92 % 1024,1 hPa 0,0 l/m 4,5 km/h (1 Bft) W-SW 247 -5,6 C -6,2 C 6,8 km/h (2 Bft)
25.11.2013 07:45 -4,5 C 91 % 1024,1 hPa 0,0 l/m 4,3 km/h (1 Bft) W-SW 247 -5,7 C -6,2 C 3,7 km/h (1 Bft)
25.11.2013 07:50 -4,5 C 91 % 1024,1 hPa 0,0 l/m 4,3 km/h (1 Bft) W-SW 247 -5,7 C -6,2 C 3,9 km/h (1 Bft)
25.11.2013 07:55 -4,5 C 91 % 1024,1 hPa 0,0 l/m 4,3 km/h (1 Bft) W-SW 247 -5,7 C -6,3 C 4,8 km/h (1 Bft)
25.11.2013 08:00 -4,5 C 91 % 1024,1 hPa 0,0 l/m 4,0 km/h (1 Bft) W 270 -5,7 C -6,0 C 2,1 km/h (1 Bft)
25.11.2013 08:05 -4,4 C 91 % 1024,5 hPa 0,0 l/m 3,1 km/h (1 Bft) S 180 -5,6 C -5,3 C 2,6 km/h (1 Bft)
25.11.2013 08:10 -4,4 C 91 % 1024,5 hPa 0,0 l/m 1,9 km/h (1 Bft) W-NW 292 -5,6 C -4,4 C 2,9 km/h (1 Bft)
25.11.2013 08:15 -4,3 C 92 % 1024,5 hPa 0,0 l/m 1,4 km/h (1 Bft) S 180 -5,4 C -4,4 C 3,4 km/h (1 Bft)
25.11.2013 08:20 -4,3 C 92 % 1024,5 hPa 0,0 l/m 2,3 km/h (1 Bft) W-SW 247 -5,4 C -4,4 C 3,4 km/h (1 Bft)
25.11.2013 08:25 -4,2 C 92 % 1024,7 hPa 0,0 l/m 2,3 km/h (1 Bft) W 270 -5,3 C -4,4 C 0,0 km/h (0 Bft)
25.11.2013 08:30 -4,1 C 92 % 1024,7 hPa 0,0 l/m 1,8 km/h (1 Bft) S-SW 202 -5,2 C -4,2 C 3,2 km/h (1 Bft)
25.11.2013 08:35 -4,1 C 92 % 1024,7 hPa 0,0 l/m 2,4 km/h (1 Bft) W-SW 247 -5,2 C -4,6 C 4,7 km/h (1 Bft)
25.11.2013 08:40 -4,1 C 92 % 1024,7 hPa 0,0 l/m 3,4 km/h (1 Bft) W-SW 247 -5,2 C -5,3 C 7,1 km/h (2 Bft)
25.11.2013 08:45 -4,0 C 92 % 1024,8 hPa 0,0 l/m 4,0 km/h (1 Bft) S-SW 202 -5,1 C -5,7 C 5,0 km/h (1 Bft)
25.11.2013 08:50 -4,0 C 92 % 1024,8 hPa 0,0 l/m 3,7 km/h (1 Bft) W-SW 247 -5,1 C -5,4 C 3,2 km/h (1 Bft)
25.11.2013 08:55 -3,9 C 92 % 1024,8 hPa 0,0 l/m 3,5 km/h (1 Bft) S-SW 202 -5,0 C -5,2 C 5,0 km/h (1 Bft)
25.11.2013 09:00 -3,8 C 92 % 1024,8 hPa 0,0 l/m 4,2 km/h (1 Bft) SW 225 -4,9 C -5,6 C 4,3 km/h (1 Bft)
25.11.2013 09:05 -3,8 C 92 % 1025,0 hPa 0,0 l/m 4,0 km/h (1 Bft) W-SW 247 -4,9 C -5,4 C 6,0 km/h (2 Bft)
25.11.2013 09:10 -3,9 C 91 % 1025,0 hPa 0,0 l/m 3,7 km/h (1 Bft) W-SW 247 -5,1 C -5,2 C 0,0 km/h (0 Bft)
25.11.2013 09:15 -3,7 C 92 % 1025,0 hPa 0,0 l/m 3,9 km/h (1 Bft) W-SW 247 -4,8 C -5,2 C 4,5 km/h (1 Bft)
25.11.2013 09:20 -3,5 C 92 % 1025,0 hPa 0,0 l/m 2,6 km/h (1 Bft) S 180 -4,6 C -4,1 C 0,0 km/h (0 Bft)
25.11.2013 09:25 -3,3 C 92 % 1025,2 hPa 0,0 l/m 1,6 km/h (1 Bft) S 180 -4,4 C -3,4 C 3,1 km/h (1 Bft)
25.11.2013 09:30 -3,3 C 92 % 1025,2 hPa 0,0 l/m 1,6 km/h (1 Bft) S 180 -4,4 C -3,2 C 0,0 km/h (0 Bft)
25.11.2013 09:33 -2,9 C 92 % 1025,2 hPa 0,0 l/m 2,1 km/h (1 Bft) S 180 -4,0 C -3,1 C 3,9 km/h (1 Bft)
25.11.2013 09:35 -2,9 C 92 % 1025,2 hPa 0,0 l/m 2,1 km/h (1 Bft) S 180 -4,0 C -3,1 C 3,9 km/h (1 Bft)
25.11.2013 09:40 -2,9 C 92 % 1025,2 hPa 0,0 l/m 1,9 km/h (1 Bft) W-SW 247 -4,0 C -3,0 C 1,9 km/h (1 Bft)
25.11.2013 09:45 -2,5 C 92 % 1025,2 hPa 0,0 l/m 1,3 km/h (1 Bft) W-SW 247 -3,6 C -2,7 C 2,6 km/h (1 Bft)
25.11.2013 09:50 -2,6 C 92 % 1025,2 hPa 0,0 l/m 1,1 km/h (1 Bft) S 180 -3,7 C -2,6 C 2,6 km/h (1 Bft)
25.11.2013 09:55 -2,7 C 91 % 1025,2 hPa 0,0 l/m 2,3 km/h (1 Bft) SW 225 -4,0 C -2,6 C 4,7 km/h (1 Bft)
25.11.2013 10:00 -2,7 C 91 % 1025,2 hPa 0,0 l/m 2,9 km/h (1 Bft) S-SW 202 -4,0 C -3,2 C 2,4 km/h (1 Bft)
25.11.2013 10:05 -2,8 C 90 % 1025,4 hPa 0,0 l/m 4,0 km/h (1 Bft) SW 225 -4,2 C -4,0 C 6,0 km/h (2 Bft)
25.11.2013 10:10 -2,6 C 90 % 1025,4 hPa 0,0 l/m 4,0 km/h (1 Bft) W-SW 247 -4,0 C -4,1 C 4,0 km/h (1 Bft)
25.11.2013 10:15 -2,7 C 89 % 1025,4 hPa 0,0 l/m 4,0 km/h (1 Bft) W-SW 247 -4,3 C -4,1 C 6,4 km/h (2 Bft)
25.11.2013 10:20 -2,8 C 89 % 1025,4 hPa 0,0 l/m 3,1 km/h (1 Bft) SW 225 -4,4 C -3,6 C 1,8 km/h (1 Bft)
25.11.2013 10:25 -2,3 C 89 % 1025,3 hPa 0,0 l/m 2,6 km/h (1 Bft) S 180 -3,9 C -3,0 C 3,9 km/h (1 Bft)
25.11.2013 10:30 -2,1 C 88 % 1025,3 hPa 0,0 l/m 2,6 km/h (1 Bft) SW 225 -3,8 C -2,7 C 2,9 km/h (1 Bft)
25.11.2013 10:35 -1,8 C 88 % 1025,3 hPa 0,0 l/m 2,7 km/h (1 Bft) W-SW 247 -3,5 C -2,1 C 2,9 km/h (1 Bft)
25.11.2013 10:40 -1,2 C 88 % 1025,3 hPa 0,0 l/m 2,9 km/h (1 Bft) SO 135 -2,9 C -1,7 C 6,8 km/h (2 Bft)
25.11.2013 10:45 -1,1 C 87 % 1025,6 hPa 0,0 l/m 3,7 km/h (1 Bft) SW 225 -3,0 C -1,4 C 3,2 km/h (1 Bft)
25.11.2013 10:50 -1,5 C 86 % 1025,6 hPa 0,0 l/m 4,0 km/h (1 Bft) SW 225 -3,5 C -1,7 C 6,8 km/h (2 Bft)
25.11.2013 10:55 -1,9 C 85 % 1025,6 hPa 0,0 l/m 4,7 km/h (1 Bft) S-SW 202 -4,1 C -2,8 C 6,1 km/h (2 Bft)
25.11.2013 11:00 -1,6 C 84 % 1025,6 hPa 0,0 l/m 5,1 km/h (1 Bft) S 180 -3,9 C -3,1 C 6,8 km/h (2 Bft)
25.11.2013 11:05 -1,5 C 83 % 1025,8 hPa 0,0 l/m 5,3 km/h (1 Bft) S 180 -4,0 C -2,9 C 6,6 km/h (2 Bft)
25.11.2013 11:10 -2,2 C 81 % 1025,8 hPa 0,0 l/m 5,6 km/h (1 Bft) NO 45 -5,0 C -3,3 C 7,7 km/h (2 Bft)
25.11.2013 11:15 -2,5 C 81 % 1025,8 hPa 0,0 l/m 5,6 km/h (1 Bft) SW 225 -5,3 C -3,9 C 7,6 km/h (2 Bft)
25.11.2013 11:20 -2,9 C 80 % 1025,8 hPa 0,0 l/m 6,0 km/h (2 Bft) SO 135 -5,9 C -4,6 C 7,2 km/h (2 Bft)
25.11.2013 11:25 -3,0 C 81 % 1025,7 hPa 0,0 l/m 5,6 km/h (1 Bft) O 90 -5,8 C -4,6 C 7,4 km/h (2 Bft)
25.11.2013 11:30 -3,5 C 80 % 1025,7 hPa 0,0 l/m 5,1 km/h (1 Bft) S 180 -6,4 C -4,5 C 4,8 km/h (1 Bft)
25.11.2013 11:35 -3,8 C 81 % 1025,7 hPa 0,0 l/m 5,0 km/h (1 Bft) S 180 -6,6 C -4,6 C 5,8 km/h (2 Bft)
25.11.2013 11:40 -3,7 C 82 % 1025,7 hPa 0,0 l/m 4,5 km/h (1 Bft) S 180 -6,3 C -3,6 C 6,1 km/h (2 Bft)
25.11.2013 11:45 -3,7 C 82 % 1025,4 hPa 0,0 l/m 4,5 km/h (1 Bft) S-SW 202 -6,3 C -3,1 C 4,2 km/h (1 Bft)
25.11.2013 11:50 -3,5 C 83 % 1025,4 hPa 0,0 l/m 4,3 km/h (1 Bft) S-SO 157 -6,0 C -2,9 C 4,2 km/h (1 Bft)
25.11.2013 11:55 -3,1 C 82 % 1025,4 hPa 0,0 l/m 3,7 km/h (1 Bft) O-SO 112 -5,7 C -2,2 C 7,1 km/h (2 Bft)
25.11.2013 12:00 -2,7 C 82 % 1025,4 hPa 0,0 l/m 4,3 km/h (1 Bft) S-SO 157 -5,3 C -2,7 C 6,6 km/h (2 Bft)
25.11.2013 12:05 -2,0 C 79 % 1025,2 hPa 0,0 l/m 5,8 km/h (2 Bft) S-SW 202 -5,1 C -2,8 C 10,6 km/h (2 Bft)
25.11.2013 12:10 -1,6 C 78 % 1025,2 hPa 0,0 l/m 6,0 km/h (2 Bft) O 90 -4,9 C -2,0 C 7,1 km/h (2 Bft)
25.11.2013 12:15 -1,6 C 77 % 1025,2 hPa 0,0 l/m 6,4 km/h (2 Bft) N 360 -5,1 C -1,9 C 8,5 km/h (2 Bft)
25.11.2013 12:20 -1,9 C 76 % 1025,2 hPa 0,0 l/m 6,9 km/h (2 Bft) W-SW 247 -5,6 C -3,3 C 6,9 km/h (2 Bft)
25.11.2013 12:25 -1,9 C 77 % 1025,4 hPa 0,0 l/m 6,9 km/h (2 Bft) S 180 -5,4 C -3,9 C 9,2 km/h (2 Bft)
25.11.2013 12:30 -2,1 C 76 % 1025,4 hPa 0,0 l/m 6,3 km/h (2 Bft) SW 225 -5,7 C -3,2 C 7,7 km/h (2 Bft)
25.11.2013 12:35 -2,8 C 76 % 1025,4 hPa 0,0 l/m 7,2 km/h (2 Bft) SW 225 -6,4 C -5,2 C 9,7 km/h (2 Bft)
25.11.2013 12:40 -3,3 C 75 % 1025,4 hPa 0,0 l/m 7,6 km/h (2 Bft) S-SW 202 -7,1 C -6,1 C 10,5 km/h (2 Bft)
25.11.2013 12:45 -3,7 C 77 % 1025,2 hPa 0,0 l/m 6,8 km/h (2 Bft) SW 225 -7,1 C -5,7 C 6,4 km/h (2 Bft)
25.11.2013 12:50 -3,9 C 78 % 1025,2 hPa 0,0 l/m 6,4 km/h (2 Bft) S 180 -7,2 C -5,3 C 11,1 km/h (2 Bft)
25.11.2013 12:55 -4,0 C 78 % 1025,2 hPa 0,0 l/m 6,6 km/h (2 Bft) S 180 -7,3 C -5,1 C 9,2 km/h (2 Bft)
25.11.2013 13:00 -4,1 C 78 % 1025,2 hPa 0,0 l/m 7,1 km/h (2 Bft) S-SO 157 -7,4 C -5,9 C 8,5 km/h (2 Bft)
25.11.2013 13:05 -4,1 C 77 % 1025,3 hPa 0,0 l/m 6,4 km/h (2 Bft) S 180 -7,5 C -4,0 C 7,1 km/h (2 Bft)
25.11.2013 13:10 -4,2 C 77 % 1025,3 hPa 0,0 l/m 6,0 km/h (2 Bft) W-SW 247 -7,6 C -4,6 C 8,7 km/h (2 Bft)
25.11.2013 13:15 -4,2 C 77 % 1025,3 hPa 0,0 l/m 6,0 km/h (2 Bft) W-SW 247 -7,6 C -4,6 C 6,4 km/h (2 Bft)
25.11.2013 13:20 -4,3 C 78 % 1025,3 hPa 0,0 l/m 5,8 km/h (2 Bft) S 180 -7,5 C -4,4 C 4,7 km/h (1 Bft)
25.11.2013 13:25 -4,6 C 79 % 1025,0 hPa 0,0 l/m 5,0 km/h (1 Bft) S 180 -7,7 C -3,6 C 4,2 km/h (1 Bft)
25.11.2013 13:30 -4,5 C 80 % 1025,0 hPa 0,0 l/m 4,8 km/h (1 Bft) S-SO 157 -7,4 C -2,4 C 7,6 km/h (2 Bft)
25.11.2013 13:35 -4,2 C 80 % 1025,0 hPa 0,0 l/m 5,8 km/h (2 Bft) S-SW 202 -7,1 C -1,7 C 5,1 km/h (1 Bft)
25.11.2013 13:40 -4,2 C 80 % 1025,0 hPa 0,0 l/m 6,3 km/h (2 Bft) S-SW 202 -7,1 C -1,4 C 6,4 km/h (2 Bft)
25.11.2013 13:45 -3,7 C 80 % 1025,0 hPa 0,0 l/m 4,7 km/h (1 Bft) W-SW 247 -6,6 C 0,0 C 4,7 km/h (1 Bft)
25.11.2013 13:50 -3,2 C 79 % 1025,0 hPa 0,0 l/m 4,3 km/h (1 Bft) S 180 -6,3 C 0,6 C 6,8 km/h (2 Bft)
25.11.2013 13:55 -2,6 C 78 % 1025,0 hPa 0,0 l/m 5,0 km/h (1 Bft) S-SW 202 -5,9 C 0,2 C 7,4 km/h (2 Bft)
25.11.2013 14:00 -2,5 C 77 % 1025,0 hPa 0,0 l/m 5,5 km/h (1 Bft) S 180 -6,0 C -0,1 C 7,6 km/h (2 Bft)
25.11.2013 14:05 -2,5 C 75 % 1024,9 hPa 0,0 l/m 5,3 km/h (1 Bft) O-NO 67 -6,3 C -0,3 C 5,3 km/h (1 Bft)
25.11.2013 14:10 -3,0 C 75 % 1024,9 hPa 0,0 l/m 5,6 km/h (1 Bft) W-SW 247 -6,8 C -0,4 C 7,2 km/h (2 Bft)
25.11.2013 14:15 -3,4 C 76 % 1024,9 hPa 0,0 l/m 6,0 km/h (2 Bft) S 180 -7,0 C -0,7 C 6,8 km/h (2 Bft)
25.11.2013 14:20 -3,4 C 74 % 1024,9 hPa 0,0 l/m 5,8 km/h (2 Bft) W-SW 247 -7,4 C -0,9 C 6,9 km/h (2 Bft)
25.11.2013 14:25 -3,7 C 75 % 1025,0 hPa 0,0 l/m 5,5 km/h (1 Bft) S 180 -7,5 C -0,8 C 7,4 km/h (2 Bft)
25.11.2013 14:30 -3,8 C 76 % 1025,0 hPa 0,0 l/m 4,8 km/h (1 Bft) S 180 -7,4 C -0,5 C 5,1 km/h (1 Bft)
25.11.2013 14:34 -3,9 C 77 % 1025,0 hPa 0,0 l/m 5,0 km/h (1 Bft) SW 225 -7,3 C -1,7 C 3,1 km/h (1 Bft)
25.11.2013 14:35 -3,9 C 77 % 1025,0 hPa 0,0 l/m 5,0 km/h (1 Bft) SW 225 -7,3 C -1,7 C 3,1 km/h (1 Bft)
25.11.2013 14:40 -4,0 C 77 % 1025,0 hPa 0,0 l/m 4,5 km/h (1 Bft) S-SW 202 -7,4 C -2,5 C 3,9 km/h (1 Bft)
25.11.2013 14:45 -4,4 C 78 % 1025,1 hPa 0,0 l/m 3,5 km/h (1 Bft) S 180 -7,6 C -3,3 C 3,9 km/h (1 Bft)
25.11.2013 14:50 -4,6 C 79 % 1025,1 hPa 0,0 l/m 3,9 km/h (1 Bft) S 180 -7,7 C -3,8 C 4,0 km/h (1 Bft)
25.11.2013 14:55 -4,8 C 79 % 1025,1 hPa 0,0 l/m 3,5 km/h (1 Bft) W-SW 247 -7,9 C -4,0 C 5,5 km/h (1 Bft)
25.11.2013 15:00 -5,0 C 80 % 1025,1 hPa 0,0 l/m 3,2 km/h (1 Bft) S-SW 202 -7,9 C -3,9 C 6,6 km/h (2 Bft)
25.11.2013 15:05 -5,3 C 81 % 1025,2 hPa 0,0 l/m 4,5 km/h (1 Bft) S 180 -8,0 C -5,2 C 7,6 km/h (2 Bft)
25.11.2013 15:10 -5,5 C 81 % 1025,2 hPa 0,0 l/m 4,5 km/h (1 Bft) SW 225 -8,2 C -5,6 C 3,1 km/h (1 Bft)
25.11.2013 15:15 -5,6 C 82 % 1025,2 hPa 0,0 l/m 4,8 km/h (1 Bft) S-SO 157 -8,2 C -6,3 C 6,3 km/h (2 Bft)
25.11.2013 15:20 -5,6 C 82 % 1025,2 hPa 0,0 l/m 5,0 km/h (1 Bft) S-SO 157 -8,2 C -6,6 C 4,2 km/h (1 Bft)
25.11.2013 15:25 -5,5 C 82 % 1025,2 hPa 0,0 l/m 5,1 km/h (1 Bft) S-SO 157 -8,1 C -6,8 C 8,2 km/h (2 Bft)
25.11.2013 15:30 -5,4 C 83 % 1025,2 hPa 0,0 l/m 5,0 km/h (1 Bft) O-SO 112 -7,8 C -6,8 C 6,3 km/h (2 Bft)
25.11.2013 15:35 -5,6 C 83 % 1025,2 hPa 0,0 l/m 4,7 km/h (1 Bft) SO 135 -8,0 C -6,8 C 6,8 km/h (2 Bft)
25.11.2013 15:40 -5,6 C 83 % 1025,2 hPa 0,0 l/m 5,6 km/h (1 Bft) S-SO 157 -8,0 C -7,5 C 7,6 km/h (2 Bft)
25.11.2013 15:45 -5,7 C 84 % 1025,2 hPa 0,0 l/m 5,8 km/h (2 Bft) O-SO 112 -8,0 C -7,7 C 4,8 km/h (1 Bft)
25.11.2013 15:50 -5,6 C 84 % 1025,2 hPa 0,0 l/m 5,1 km/h (1 Bft) O-SO 112 -7,9 C -7,3 C 5,3 km/h (1 Bft)
25.11.2013 15:55 -5,6 C 85 % 1025,2 hPa 0,0 l/m 4,0 km/h (1 Bft) O-SO 112 -7,7 C -7,1 C 5,1 km/h (1 Bft)
25.11.2013 16:00 -5,4 C 85 % 1025,2 hPa 0,0 l/m 4,3 km/h (1 Bft) O-SO 112 -7,5 C -7,6 C 4,2 km/h (1 Bft)
25.11.2013 16:05 -5,5 C 85 % 1025,3 hPa 0,0 l/m 5,3 km/h (1 Bft) O 90 -7,6 C -8,3 C 7,4 km/h (2 Bft)
25.11.2013 16:10 -5,6 C 85 % 1025,3 hPa 0,0 l/m 5,3 km/h (1 Bft) SO 135 -7,7 C -8,3 C 6,4 km/h (2 Bft)
25.11.2013 16:15 -5,8 C 85 % 1025,3 hPa 0,0 l/m 5,1 km/h (1 Bft) O-SO 112 -7,9 C -8,3 C 5,8 km/h (2 Bft)
25.11.2013 16:20 -5,9 C 85 % 1025,3 hPa 0,0 l/m 4,8 km/h (1 Bft) O-SO 112 -8,0 C -8,3 C 5,5 km/h (1 Bft)
25.11.2013 16:25 -6,2 C 85 % 1025,3 hPa 0,0 l/m 5,1 km/h (1 Bft) O-SO 112 -8,3 C -8,7 C 7,9 km/h (2 Bft)
25.11.2013 16:30 -6,3 C 85 % 1025,3 hPa 0,0 l/m 5,3 km/h (1 Bft) O 90 -8,4 C -8,8 C 5,5 km/h (1 Bft)
25.11.2013 16:35 -6,4 C 85 % 1025,3 hPa 0,0 l/m 6,3 km/h (2 Bft) O 90 -8,5 C -9,3 C 6,6 km/h (2 Bft)
25.11.2013 16:40 -6,4 C 85 % 1025,3 hPa 0,0 l/m 6,3 km/h (2 Bft) O-SO 112 -8,5 C -9,3 C 6,8 km/h (2 Bft)
25.11.2013 16:45 -6,2 C 86 % 1025,3 hPa 0,0 l/m 6,1 km/h (2 Bft) O-SO 112 -8,1 C -9,3 C 9,3 km/h (2 Bft)
25.11.2013 16:50 -6,2 C 86 % 1025,3 hPa 0,0 l/m 5,8 km/h (2 Bft) O-SO 112 -8,1 C -9,2 C 6,3 km/h (2 Bft)
25.11.2013 16:55 -6,2 C 85 % 1025,3 hPa 0,0 l/m 6,3 km/h (2 Bft) O 90 -8,3 C -9,4 C 7,9 km/h (2 Bft)
25.11.2013 17:00 -6,1 C 85 % 1025,3 hPa 0,0 l/m 6,6 km/h (2 Bft) O-SO 112 -8,2 C -9,8 C 9,5 km/h (2 Bft)
25.11.2013 17:05 -6,2 C 85 % 1025,4 hPa 0,0 l/m 6,8 km/h (2 Bft) O-SO 112 -8,3 C -10,1 C 9,2 km/h (2 Bft)
25.11.2013 17:10 -6,2 C 85 % 1025,4 hPa 0,0 l/m 6,9 km/h (2 Bft) O-SO 112 -8,3 C -10,4 C 8,4 km/h (2 Bft)
25.11.2013 17:15 -6,5 C 85 % 1025,4 hPa 0,0 l/m 6,8 km/h (2 Bft) O 90 -8,6 C -10,3 C 9,8 km/h (2 Bft)
25.11.2013 17:20 -7,0 C 85 % 1025,4 hPa 0,0 l/m 6,4 km/h (2 Bft) O-SO 112 -9,1 C -9,6 C 8,0 km/h (2 Bft)
25.11.2013 17:25 -6,8 C 86 % 1025,5 hPa 0,0 l/m 6,3 km/h (2 Bft) O 90 -8,7 C -9,8 C 6,0 km/h (2 Bft)
25.11.2013 17:30 -6,9 C 86 % 1025,5 hPa 0,0 l/m 6,0 km/h (2 Bft) O 90 -8,8 C -9,6 C 7,2 km/h (2 Bft)
25.11.2013 17:35 -6,8 C 86 % 1025,5 hPa 0,0 l/m 5,8 km/h (2 Bft) O-SO 112 -8,7 C -9,6 C 8,4 km/h (2 Bft)
25.11.2013 17:40 -6,6 C 86 % 1025,5 hPa 0,0 l/m 6,3 km/h (2 Bft) O-SO 112 -8,5 C -9,7 C 8,2 km/h (2 Bft)
25.11.2013 17:45 -6,3 C 86 % 1025,6 hPa 0,0 l/m 6,6 km/h (2 Bft) O-SO 112 -8,2 C -9,9 C 8,0 km/h (2 Bft)
25.11.2013 17:50 -6,1 C 86 % 1025,6 hPa 0,0 l/m 7,6 km/h (2 Bft) NO 45 -8,0 C -11,5 C 12,6 km/h (3 Bft)
25.11.2013 17:55 -6,0 C 85 % 1025,6 hPa 0,0 l/m 7,9 km/h (2 Bft) SO 135 -8,1 C -11,8 C 8,5 km/h (2 Bft)
25.11.2013 18:00 -6,3 C 84 % 1025,6 hPa 0,0 l/m 7,2 km/h (2 Bft) O-SO 112 -8,5 C -10,9 C 7,4 km/h (2 Bft)
25.11.2013 18:05 -6,4 C 84 % 1025,6 hPa 0,0 l/m 6,6 km/h (2 Bft) O-SO 112 -8,6 C -9,8 C 6,4 km/h (2 Bft)
25.11.2013 18:10 -6,3 C 83 % 1025,6 hPa 0,0 l/m 6,6 km/h (2 Bft) SO 135 -8,7 C -9,8 C 7,1 km/h (2 Bft)
25.11.2013 18:15 -6,6 C 83 % 1025,6 hPa 0,0 l/m 6,8 km/h (2 Bft) O-SO 112 -9,0 C -10,1 C 6,9 km/h (2 Bft)
25.11.2013 18:20 -6,9 C 83 % 1025,6 hPa 0,0 l/m 6,0 km/h (2 Bft) O 90 -9,3 C -9,3 C 6,4 km/h (2 Bft)
25.11.2013 18:25 -6,7 C 83 % 1025,5 hPa 0,0 l/m 5,8 km/h (2 Bft) O-SO 112 -9,1 C -9,6 C 8,7 km/h (2 Bft)
25.11.2013 18:30 -6,6 C 83 % 1025,5 hPa 0,0 l/m 6,8 km/h (2 Bft) O 90 -9,0 C -10,4 C 7,4 km/h (2 Bft)
25.11.2013 18:35 -7,1 C 83 % 1025,5 hPa 0,0 l/m 6,4 km/h (2 Bft) O-SO 112 -9,5 C -9,8 C 6,6 km/h (2 Bft)
25.11.2013 18:40 -7,0 C 83 % 1025,5 hPa 0,0 l/m 6,0 km/h (2 Bft) O-SO 112 -9,4 C -9,7 C 6,9 km/h (2 Bft)
25.11.2013 18:45 -7,2 C 84 % 1025,6 hPa 0,0 l/m 4,8 km/h (1 Bft) SW 225 -9,4 C -9,2 C 7,6 km/h (2 Bft)
25.11.2013 18:50 -7,5 C 84 % 1025,6 hPa 0,0 l/m 4,0 km/h (1 Bft) O-SO 112 -9,7 C -8,8 C 5,1 km/h (1 Bft)
25.11.2013 18:55 -7,7 C 84 % 1025,6 hPa 0,0 l/m 3,1 km/h (1 Bft) O 90 -9,9 C -8,3 C 3,7 km/h (1 Bft)
25.11.2013 19:00 -7,3 C 85 % 1025,6 hPa 0,0 l/m 3,1 km/h (1 Bft) O-SO 112 -9,4 C -8,3 C 3,1 km/h (1 Bft)
25.11.2013 19:05 -7,3 C 85 % 1025,8 hPa 0,0 l/m 2,3 km/h (1 Bft) O 90 -9,4 C -7,3 C 1,8 km/h (1 Bft)
25.11.2013 19:10 -7,3 C 86 % 1025,8 hPa 0,0 l/m 1,8 km/h (1 Bft) O-NO 67 -9,2 C -7,0 C 2,3 km/h (1 Bft)
25.11.2013 19:15 -7,3 C 86 % 1025,8 hPa 0,0 l/m 2,1 km/h (1 Bft) O-SO 112 -9,2 C -7,3 C 3,4 km/h (1 Bft)
25.11.2013 19:20 -7,5 C 86 % 1025,8 hPa 0,0 l/m 2,6 km/h (1 Bft) O-SO 112 -9,4 C -7,8 C 4,3 km/h (1 Bft)
25.11.2013 19:25 -7,3 C 86 % 1026,0 hPa 0,0 l/m 1,9 km/h (1 Bft) O-SO 112 -9,2 C -7,1 C 2,1 km/h (1 Bft)
25.11.2013 19:30 -7,3 C 86 % 1026,0 hPa 0,0 l/m 1,4 km/h (1 Bft) W-SW 247 -9,2 C -7,1 C 0,0 km/h (0 Bft)
25.11.2013 19:34 -7,1 C 87 % 1026,0 hPa 0,0 l/m 1,4 km/h (1 Bft) N 360 -8,9 C -7,1 C 4,0 km/h (1 Bft)
25.11.2013 19:35 -7,1 C 87 % 1026,0 hPa 0,0 l/m 1,4 km/h (1 Bft) N 360 -8,9 C -7,1 C 4,0 km/h (1 Bft)
25.11.2013 19:40 -6,8 C 87 % 1026,0 hPa 0,0 l/m 2,3 km/h (1 Bft) O 90 -8,6 C -7,1 C 0,0 km/h (0 Bft)
25.11.2013 19:45 -6,9 C 87 % 1025,9 hPa 0,0 l/m 3,4 km/h (1 Bft) O-SO 112 -8,7 C -8,1 C 0,0 km/h (0 Bft)
25.11.2013 19:50 -7,2 C 87 % 1025,9 hPa 0,0 l/m 3,2 km/h (1 Bft) O-NO 67 -9,0 C -8,1 C 9,7 km/h (2 Bft)
25.11.2013 19:55 -7,5 C 87 % 1025,9 hPa 0,0 l/m 3,2 km/h (1 Bft) O-SO 112 -9,3 C -8,2 C 1,9 km/h (1 Bft)
25.11.2013 20:00 -7,6 C 87 % 1025,9 hPa 0,0 l/m 2,9 km/h (1 Bft) NO 45 -9,4 C -8,2 C 2,6 km/h (1 Bft)
25.11.2013 20:05 -7,7 C 87 % 1026,1 hPa 0,0 l/m 1,9 km/h (1 Bft) O-NO 67 -9,5 C -7,4 C 3,7 km/h (1 Bft)
25.11.2013 20:10 -7,7 C 87 % 1026,1 hPa 0,0 l/m 2,6 km/h (1 Bft) O-NO 67 -9,5 C -8,2 C 5,3 km/h (1 Bft)
25.11.2013 20:15 -7,7 C 87 % 1026,1 hPa 0,0 l/m 1,6 km/h (1 Bft) O 90 -9,5 C -7,5 C 0,0 km/h (0 Bft)
25.11.2013 20:20 -7,5 C 88 % 1026,1 hPa 0,0 l/m 0,3 km/h (0 Bft) N-NO 22 -9,1 C -7,5 C 0,0 km/h (0 Bft)
25.11.2013 20:25 -7,4 C 88 % 1026,3 hPa 0,0 l/m 0,0 km/h (0 Bft) O-SO 112 -9,0 C -7,2 C 0,0 km/h (0 Bft)
25.11.2013 20:30 -7,2 C 88 % 1026,3 hPa 0,0 l/m 0,3 km/h (0 Bft) O-SO 112 -8,8 C -7,0 C 0,0 km/h (0 Bft)
25.11.2013 20:35 -7,0 C 88 % 1026,3 hPa 0,0 l/m 0,3 km/h (0 Bft) O-SO 112 -8,6 C -6,9 C 0,0 km/h (0 Bft)
25.11.2013 20:40 -6,9 C 88 % 1026,3 hPa 0,0 l/m 0,0 km/h (0 Bft) N-NO 22 -8,5 C -6,8 C 0,0 km/h (0 Bft)
25.11.2013 20:45 -6,6 C 89 % 1026,1 hPa 0,0 l/m 0,2 km/h (0 Bft) N-NO 22 -8,1 C -6,6 C 0,0 km/h (0 Bft)
25.11.2013 20:50 -6,6 C 89 % 1026,1 hPa 0,0 l/m 0,2 km/h (0 Bft) N-NO 22 -8,1 C -6,5 C 0,0 km/h (0 Bft)
25.11.2013 20:55 -6,4 C 89 % 1026,1 hPa 0,0 l/m 0,2 km/h (0 Bft) NO 45 -7,9 C -6,4 C 0,0 km/h (0 Bft)
25.11.2013 21:00 -6,4 C 89 % 1026,1 hPa 0,0 l/m 0,2 km/h (0 Bft) O 90 -7,9 C -6,3 C 1,6 km/h (1 Bft)
25.11.2013 21:05 -6,2 C 89 % 1026,2 hPa 0,0 l/m 1,4 km/h (1 Bft) O-NO 67 -7,7 C -6,2 C 0,0 km/h (0 Bft)
25.11.2013 21:10 -6,1 C 89 % 1026,2 hPa 0,0 l/m 1,4 km/h (1 Bft) NO 45 -7,6 C -6,1 C 0,0 km/h (0 Bft)
25.11.2013 21:15 -6,1 C 89 % 1026,2 hPa 0,0 l/m 0,8 km/h (0 Bft) S-SW 202 -7,6 C -6,0 C 3,4 km/h (1 Bft)
25.11.2013 21:20 -6,1 C 89 % 1026,2 hPa 0,0 l/m 1,4 km/h (1 Bft) O-SO 112 -7,6 C -6,0 C 1,9 km/h (1 Bft)
25.11.2013 21:25 -6,1 C 89 % 1026,3 hPa 0,0 l/m 1,1 km/h (1 Bft) O-SO 112 -7,6 C -6,0 C 1,9 km/h (1 Bft)
25.11.2013 21:30 -5,6 C 89 % 1026,3 hPa 0,0 l/m 1,9 km/h (1 Bft) O-SO 112 -7,1 C -5,9 C 4,8 km/h (1 Bft)
25.11.2013 21:35 -5,3 C 89 % 1026,3 hPa 0,0 l/m 2,6 km/h (1 Bft) O-SO 112 -6,8 C -6,0 C 2,1 km/h (1 Bft)
25.11.2013 21:40 -5,3 C 89 % 1026,3 hPa 0,0 l/m 1,9 km/h (1 Bft) O-SO 112 -6,8 C -5,3 C 0,0 km/h (0 Bft)
25.11.2013 21:45 -5,3 C 89 % 1026,4 hPa 0,0 l/m 1,6 km/h (1 Bft) O-SO 112 -6,8 C -5,2 C 5,1 km/h (1 Bft)
25.11.2013 21:50 -5,1 C 89 % 1026,4 hPa 0,0 l/m 2,3 km/h (1 Bft) O-SO 112 -6,6 C -5,3 C 4,5 km/h (1 Bft)
25.11.2013 21:55 -4,9 C 88 % 1026,4 hPa 0,0 l/m 3,7 km/h (1 Bft) O 90 -6,6 C -6,4 C 7,4 km/h (2 Bft)
25.11.2013 22:00 -4,9 C 88 % 1026,4 hPa 0,0 l/m 4,2 km/h (1 Bft) NO 45 -6,6 C -6,7 C 3,9 km/h (1 Bft)
25.11.2013 22:05 -5,0 C 88 % 1026,2 hPa 0,0 l/m 3,7 km/h (1 Bft) W-SW 247 -6,7 C -6,2 C 0,0 km/h (0 Bft)
25.11.2013 22:10 -5,0 C 87 % 1026,2 hPa 0,0 l/m 1,9 km/h (1 Bft) W-NW 292 -6,8 C -4,8 C 0,0 km/h (0 Bft)
25.11.2013 22:15 -5,1 C 87 % 1026,2 hPa 0,0 l/m 0,8 km/h (0 Bft) S 180 -6,9 C -4,9 C 0,0 km/h (0 Bft)
25.11.2013 22:20 -5,0 C 87 % 1026,2 hPa 0,0 l/m 1,1 km/h (1 Bft) O-SO 112 -6,8 C -5,0 C 2,1 km/h (1 Bft)
25.11.2013 22:25 -5,0 C 86 % 1025,9 hPa 0,0 l/m 3,4 km/h (1 Bft) O 90 -7,0 C -6,2 C 7,6 km/h (2 Bft)
25.11.2013 22:30 -5,0 C 85 % 1025,9 hPa 0,0 l/m 4,7 km/h (1 Bft) O 90 -7,1 C -7,1 C 6,4 km/h (2 Bft)
25.11.2013 22:35 -5,0 C 84 % 1025,9 hPa 0,0 l/m 4,8 km/h (1 Bft) S-SO 157 -7,3 C -7,2 C 2,4 km/h (1 Bft)
25.11.2013 22:40 -5,1 C 84 % 1025,9 hPa 0,0 l/m 4,3 km/h (1 Bft) O-SO 112 -7,4 C -6,9 C 4,5 km/h (1 Bft)
25.11.2013 22:45 -5,2 C 84 % 1025,8 hPa 0,0 l/m 3,4 km/h (1 Bft) O-SO 112 -7,5 C -6,2 C 4,7 km/h (1 Bft)
25.11.2013 22:50 -5,3 C 85 % 1025,8 hPa 0,0 l/m 2,6 km/h (1 Bft) N 360 -7,4 C -5,6 C 2,7 km/h (1 Bft)
25.11.2013 22:55 -5,3 C 85 % 1025,8 hPa 0,0 l/m 1,1 km/h (1 Bft) N-NW 337 -7,4 C -5,0 C 0,0 km/h (0 Bft)
25.11.2013 23:00 -5,4 C 85 % 1025,8 hPa 0,0 l/m 1,0 km/h (0 Bft) NO 45 -7,5 C -5,1 C 2,6 km/h (1 Bft)
25.11.2013 23:05 -5,2 C 86 % 1025,9 hPa 0,0 l/m 1,9 km/h (1 Bft) O-NO 67 -7,2 C -5,1 C 3,7 km/h (1 Bft)
25.11.2013 23:10 -5,2 C 86 % 1025,9 hPa 0,0 l/m 2,9 km/h (1 Bft) O-NO 67 -7,2 C -5,9 C 4,2 km/h (1 Bft)
25.11.2013 23:15 -5,1 C 86 % 1025,9 hPa 0,0 l/m 3,2 km/h (1 Bft) O 90 -7,1 C -6,1 C 4,5 km/h (1 Bft)
25.11.2013 23:21 -5,0 C 86 % 1025,9 hPa 0,0 l/m 2,9 km/h (1 Bft) O 90 -7,0 C -5,8 C 4,5 km/h (1 Bft)
25.11.2013 23:25 -5,0 C 87 % 1026,0 hPa 0,0 l/m 2,4 km/h (1 Bft) O 90 -6,8 C -5,4 C 0,0 km/h (0 Bft)
25.11.2013 23:30 -5,0 C 87 % 1026,0 hPa 0,0 l/m 1,9 km/h (1 Bft) O-NO 67 -6,8 C -5,0 C 0,0 km/h (0 Bft)
25.11.2013 23:35 -4,9 C 87 % 1026,0 hPa 0,0 l/m 1,1 km/h (1 Bft) NO 45 -6,7 C -5,0 C 2,1 km/h (1 Bft)
25.11.2013 23:40 -4,9 C 87 % 1026,0 hPa 0,0 l/m 1,0 km/h (0 Bft) NO 45 -6,7 C -5,0 C 3,4 km/h (1 Bft)
25.11.2013 23:45 -4,9 C 87 % 1026,2 hPa 0,0 l/m 2,3 km/h (1 Bft) O-NO 67 -6,7 C -5,2 C 3,9 km/h (1 Bft)
25.11.2013 23:50 -4,9 C 87 % 1026,2 hPa 0,0 l/m 2,9 km/h (1 Bft) O 90 -6,7 C -5,7 C 2,7 km/h (1 Bft)
25.11.2013 23:55 -4,8 C 88 % 1026,2 hPa 0,0 l/m 3,2 km/h (1 Bft) O-SO 112 -6,5 C -5,8 C 5,3 km/h (1 Bft)
_ Min-Zeit 20:15 14:20 01:00 - 20:40 - - 18:55 17:55 23:30
Minimum _ -7,7 C 74 % 1019,8 hPa - 0,0 km/h (0 Bft) - - -9,9 C -11,8 C 0,0 km/h (0 Bft)
_ Max-Zeit 01:05 01:20 22:00 23:55 01:40 - - 01:05 13:50 01:35
Maximum _ 0,1 C 98 % 1026,4 hPa 0,0 l/m 8,2 km/h
W-NW (2 Bft)
- - -0,2 C 0,6 C 16,4 km/h
W-NW (3 Bft)
Durchschnitt _ -4,1 C 88 % 1024,3 hPa #0,0 l/m 4,0 km/h (1 Bft) O-SO - -5,8 C -5,1 C 5,0 km/h (1 Bft)